sensor_id;sensor_type;location;lat;lon;timestamp;temperature;humidity
29363;DHT22;16349;53.672;10.014;2023-05-07T00:00:46;9.10;99.90
29363;DHT22;16349;53.672;10.014;2023-05-07T00:03:13;9.10;99.90
29363;DHT22;16349;53.672;10.014;2023-05-07T00:05:40;9.10;99.90
29363;DHT22;16349;53.672;10.014;2023-05-07T00:08:09;9.10;99.90
29363;DHT22;16349;53.672;10.014;2023-05-07T00:10:35;9.10;99.90
29363;DHT22;16349;53.672;10.014;2023-05-07T00:13:03;9.10;99.90
29363;DHT22;16349;53.672;10.014;2023-05-07T00:15:30;9.10;99.90
29363;DHT22;16349;53.672;10.014;2023-05-07T00:17:57;9.10;99.90
29363;DHT22;16349;53.672;10.014;2023-05-07T00:20:25;9.10;99.90
29363;DHT22;16349;53.672;10.014;2023-05-07T00:22:52;9.10;99.90
29363;DHT22;16349;53.672;10.014;2023-05-07T00:25:21;9.10;99.90
29363;DHT22;16349;53.672;10.014;2023-05-07T00:27:48;9.10;99.90
29363;DHT22;16349;53.672;10.014;2023-05-07T00:30:15;9.10;99.90
29363;DHT22;16349;53.672;10.014;2023-05-07T00:32:42;9.10;99.90
29363;DHT22;16349;53.672;10.014;2023-05-07T00:35:11;9.10;99.90
29363;DHT22;16349;53.672;10.014;2023-05-07T00:37:38;9.10;99.90
29363;DHT22;16349;53.672;10.014;2023-05-07T00:40:07;9.10;99.90
29363;DHT22;16349;53.672;10.014;2023-05-07T00:42:36;9.10;99.90
29363;DHT22;16349;53.672;10.014;2023-05-07T00:45:04;9.10;99.90
29363;DHT22;16349;53.672;10.014;2023-05-07T00:47:33;9.10;99.90
29363;DHT22;16349;53.672;10.014;2023-05-07T00:50:00;9.10;99.90
29363;DHT22;16349;53.672;10.014;2023-05-07T00:52:27;9.10;99.90
29363;DHT22;16349;53.672;10.014;2023-05-07T00:54:55;9.10;99.90
29363;DHT22;16349;53.672;10.014;2023-05-07T00:57:24;9.10;99.90
29363;DHT22;16349;53.672;10.014;2023-05-07T00:59:53;9.10;99.90
29363;DHT22;16349;53.672;10.014;2023-05-07T01:02:20;9.10;99.90
29363;DHT22;16349;53.672;10.014;2023-05-07T01:04:47;9.10;99.90
29363;DHT22;16349;53.672;10.014;2023-05-07T01:07:14;9.10;99.90
29363;DHT22;16349;53.672;10.014;2023-05-07T01:09:42;9.10;99.90
29363;DHT22;16349;53.672;10.014;2023-05-07T01:12:09;9.10;99.90
29363;DHT22;16349;53.672;10.014;2023-05-07T01:14:37;9.10;99.90
29363;DHT22;16349;53.672;10.014;2023-05-07T01:17:05;9.10;99.90
29363;DHT22;16349;53.672;10.014;2023-05-07T01:19:32;9.10;99.90
29363;DHT22;16349;53.672;10.014;2023-05-07T01:22:02;9.00;99.90
29363;DHT22;16349;53.672;10.014;2023-05-07T01:24:36;9.10;99.90
29363;DHT22;16349;53.672;10.014;2023-05-07T01:27:04;9.10;99.90
29363;DHT22;16349;53.672;10.014;2023-05-07T01:29:33;9.00;99.90
29363;DHT22;16349;53.672;10.014;2023-05-07T01:32:00;9.00;99.90
29363;DHT22;16349;53.672;10.014;2023-05-07T01:34:30;9.00;99.90
29363;DHT22;16349;53.672;10.014;2023-05-07T01:36:59;9.00;99.90
29363;DHT22;16349;53.672;10.014;2023-05-07T01:39:29;9.00;99.90
29363;DHT22;16349;53.672;10.014;2023-05-07T01:41:59;9.00;99.90
29363;DHT22;16349;53.672;10.014;2023-05-07T01:44:27;9.00;99.90
29363;DHT22;16349;53.672;10.014;2023-05-07T01:46:55;9.00;99.90
29363;DHT22;16349;53.672;10.014;2023-05-07T01:49:23;9.00;99.90
29363;DHT22;16349;53.672;10.014;2023-05-07T01:51:50;9.00;99.90
29363;DHT22;16349;53.672;10.014;2023-05-07T01:54:17;9.00;99.90
29363;DHT22;16349;53.672;10.014;2023-05-07T01:56:45;9.00;99.90
29363;DHT22;16349;53.672;10.014;2023-05-07T01:59:14;9.00;99.90
29363;DHT22;16349;53.672;10.014;2023-05-07T02:01:42;9.00;99.90
29363;DHT22;16349;53.672;10.014;2023-05-07T02:04:09;9.00;99.90
29363;DHT22;16349;53.672;10.014;2023-05-07T02:06:38;9.00;99.90
29363;DHT22;16349;53.672;10.014;2023-05-07T02:09:06;9.00;99.90
29363;DHT22;16349;53.672;10.014;2023-05-07T02:11:34;8.90;99.90
29363;DHT22;16349;53.672;10.014;2023-05-07T02:14:02;8.90;99.90
29363;DHT22;16349;53.672;10.014;2023-05-07T02:16:31;9.00;99.90
29363;DHT22;16349;53.672;10.014;2023-05-07T02:18:57;9.00;99.90
29363;DHT22;16349;53.672;10.014;2023-05-07T02:21:25;9.00;99.90
29363;DHT22;16349;53.672;10.014;2023-05-07T02:23:52;9.00;99.90
29363;DHT22;16349;53.672;10.014;2023-05-07T02:26:20;9.00;99.90
29363;DHT22;16349;53.672;10.014;2023-05-07T02:28:47;9.00;99.90
29363;DHT22;16349;53.672;10.014;2023-05-07T02:31:14;9.00;99.90
29363;DHT22;16349;53.672;10.014;2023-05-07T02:33:42;9.00;99.90
29363;DHT22;16349;53.672;10.014;2023-05-07T02:36:12;9.00;99.90
29363;DHT22;16349;53.672;10.014;2023-05-07T02:38:49;9.00;99.90
29363;DHT22;16349;53.672;10.014;2023-05-07T02:41:16;9.00;99.90
29363;DHT22;16349;53.672;10.014;2023-05-07T02:43:43;9.00;99.90
29363;DHT22;16349;53.672;10.014;2023-05-07T02:46:10;9.00;99.90
29363;DHT22;16349;53.672;10.014;2023-05-07T02:48:43;9.00;99.90
29363;DHT22;16349;53.672;10.014;2023-05-07T02:51:10;9.00;99.90
29363;DHT22;16349;53.672;10.014;2023-05-07T02:53:39;9.00;99.90
29363;DHT22;16349;53.672;10.014;2023-05-07T02:56:06;9.00;99.90
29363;DHT22;16349;53.672;10.014;2023-05-07T02:58:33;9.00;99.90
29363;DHT22;16349;53.672;10.014;2023-05-07T03:01:02;9.00;99.90
29363;DHT22;16349;53.672;10.014;2023-05-07T03:03:39;9.00;99.90
29363;DHT22;16349;53.672;10.014;2023-05-07T03:06:08;9.00;99.90
29363;DHT22;16349;53.672;10.014;2023-05-07T03:08:35;9.00;99.90
29363;DHT22;16349;53.672;10.014;2023-05-07T03:11:02;8.90;99.90
29363;DHT22;16349;53.672;10.014;2023-05-07T03:13:29;9.00;99.90
29363;DHT22;16349;53.672;10.014;2023-05-07T03:15:56;8.90;99.90
29363;DHT22;16349;53.672;10.014;2023-05-07T03:18:23;8.90;99.90
29363;DHT22;16349;53.672;10.014;2023-05-07T03:20:51;8.90;99.90
29363;DHT22;16349;53.672;10.014;2023-05-07T03:23:19;8.90;99.90
29363;DHT22;16349;53.672;10.014;2023-05-07T03:26:08;8.90;99.90
29363;DHT22;16349;53.672;10.014;2023-05-07T03:28:36;8.90;99.90
29363;DHT22;16349;53.672;10.014;2023-05-07T03:31:07;8.90;99.90
29363;DHT22;16349;53.672;10.014;2023-05-07T03:33:35;8.90;99.90
29363;DHT22;16349;53.672;10.014;2023-05-07T03:36:02;8.90;99.90
29363;DHT22;16349;53.672;10.014;2023-05-07T03:38:30;8.90;99.90
29363;DHT22;16349;53.672;10.014;2023-05-07T03:40:57;8.90;99.90
29363;DHT22;16349;53.672;10.014;2023-05-07T03:43:25;8.90;99.90
29363;DHT22;16349;53.672;10.014;2023-05-07T03:46:00;8.90;99.90
29363;DHT22;16349;53.672;10.014;2023-05-07T03:48:28;8.90;99.90
29363;DHT22;16349;53.672;10.014;2023-05-07T03:50:57;8.90;99.90
29363;DHT22;16349;53.672;10.014;2023-05-07T03:53:27;8.90;99.90
29363;DHT22;16349;53.672;10.014;2023-05-07T03:55:56;8.90;99.90
29363;DHT22;16349;53.672;10.014;2023-05-07T03:58:23;8.90;99.90
29363;DHT22;16349;53.672;10.014;2023-05-07T04:00:50;8.90;99.90
29363;DHT22;16349;53.672;10.014;2023-05-07T04:03:23;9.00;99.90
29363;DHT22;16349;53.672;10.014;2023-05-07T04:05:51;9.00;99.90
29363;DHT22;16349;53.672;10.014;2023-05-07T04:08:18;9.00;99.90
29363;DHT22;16349;53.672;10.014;2023-05-07T04:10:48;9.00;99.90
29363;DHT22;16349;53.672;10.014;2023-05-07T04:13:22;9.00;99.90
29363;DHT22;16349;53.672;10.014;2023-05-07T04:15:50;9.00;99.90
29363;DHT22;16349;53.672;10.014;2023-05-07T04:18:18;9.00;99.90
29363;DHT22;16349;53.672;10.014;2023-05-07T04:20:47;9.00;99.90
29363;DHT22;16349;53.672;10.014;2023-05-07T04:23:14;9.00;99.90
29363;DHT22;16349;53.672;10.014;2023-05-07T04:25:42;9.00;99.90
29363;DHT22;16349;53.672;10.014;2023-05-07T04:28:22;9.00;99.90
29363;DHT22;16349;53.672;10.014;2023-05-07T04:30:49;9.00;99.90
29363;DHT22;16349;53.672;10.014;2023-05-07T04:33:17;9.00;99.90
29363;DHT22;16349;53.672;10.014;2023-05-07T04:35:45;9.00;99.90
29363;DHT22;16349;53.672;10.014;2023-05-07T04:38:13;9.00;99.90
29363;DHT22;16349;53.672;10.014;2023-05-07T04:40:39;9.00;99.90
29363;DHT22;16349;53.672;10.014;2023-05-07T04:43:08;9.00;99.90
29363;DHT22;16349;53.672;10.014;2023-05-07T04:45:43;9.10;99.90
29363;DHT22;16349;53.672;10.014;2023-05-07T04:48:11;9.10;99.90
29363;DHT22;16349;53.672;10.014;2023-05-07T04:50:40;9.10;99.90
29363;DHT22;16349;53.672;10.014;2023-05-07T04:53:08;9.00;99.90
29363;DHT22;16349;53.672;10.014;2023-05-07T04:55:35;9.00;99.90
29363;DHT22;16349;53.672;10.014;2023-05-07T04:58:03;9.10;99.90
29363;DHT22;16349;53.672;10.014;2023-05-07T05:00:32;9.10;99.90
29363;DHT22;16349;53.672;10.014;2023-05-07T05:03:23;9.10;99.90
29363;DHT22;16349;53.672;10.014;2023-05-07T05:05:51;9.10;99.90
29363;DHT22;16349;53.672;10.014;2023-05-07T05:08:19;9.10;99.90
29363;DHT22;16349;53.672;10.014;2023-05-07T05:10:45;9.10;99.90
29363;DHT22;16349;53.672;10.014;2023-05-07T05:13:14;9.10;99.90
29363;DHT22;16349;53.672;10.014;2023-05-07T05:15:42;9.20;99.90
29363;DHT22;16349;53.672;10.014;2023-05-07T05:18:09;9.20;99.90
29363;DHT22;16349;53.672;10.014;2023-05-07T05:20:37;9.20;99.90
29363;DHT22;16349;53.672;10.014;2023-05-07T05:23:04;9.20;99.90
29363;DHT22;16349;53.672;10.014;2023-05-07T05:25:32;9.20;99.90
29363;DHT22;16349;53.672;10.014;2023-05-07T05:28:00;9.30;99.90
29363;DHT22;16349;53.672;10.014;2023-05-07T05:30:27;9.30;99.90
29363;DHT22;16349;53.672;10.014;2023-05-07T05:32:54;9.30;99.90
29363;DHT22;16349;53.672;10.014;2023-05-07T05:35:21;9.30;99.90
29363;DHT22;16349;53.672;10.014;2023-05-07T05:37:49;9.30;99.90
29363;DHT22;16349;53.672;10.014;2023-05-07T05:40:18;9.40;99.90
29363;DHT22;16349;53.672;10.014;2023-05-07T05:42:45;9.40;99.90
29363;DHT22;16349;53.672;10.014;2023-05-07T05:45:12;9.40;99.90
29363;DHT22;16349;53.672;10.014;2023-05-07T05:47:41;9.40;99.90
29363;DHT22;16349;53.672;10.014;2023-05-07T05:50:09;9.50;99.90
29363;DHT22;16349;53.672;10.014;2023-05-07T05:52:36;9.50;99.90
29363;DHT22;16349;53.672;10.014;2023-05-07T05:55:06;9.50;99.90
29363;DHT22;16349;53.672;10.014;2023-05-07T05:57:35;9.60;99.90
29363;DHT22;16349;53.672;10.014;2023-05-07T06:00:02;9.60;99.90
29363;DHT22;16349;53.672;10.014;2023-05-07T06:02:32;9.60;99.90
29363;DHT22;16349;53.672;10.014;2023-05-07T06:05:21;9.70;99.90
29363;DHT22;16349;53.672;10.014;2023-05-07T06:07:52;9.70;99.90
29363;DHT22;16349;53.672;10.014;2023-05-07T06:10:20;9.70;99.90
29363;DHT22;16349;53.672;10.014;2023-05-07T06:12:47;9.70;99.90
29363;DHT22;16349;53.672;10.014;2023-05-07T06:15:15;9.80;99.90
29363;DHT22;16349;53.672;10.014;2023-05-07T06:17:43;9.80;99.90
29363;DHT22;16349;53.672;10.014;2023-05-07T06:20:11;9.80;99.90
29363;DHT22;16349;53.672;10.014;2023-05-07T06:22:39;9.80;99.90
29363;DHT22;16349;53.672;10.014;2023-05-07T06:25:07;9.90;99.90
29363;DHT22;16349;53.672;10.014;2023-05-07T06:27:35;9.90;99.90
29363;DHT22;16349;53.672;10.014;2023-05-07T06:30:03;9.80;99.90
29363;DHT22;16349;53.672;10.014;2023-05-07T06:32:31;9.80;99.90
29363;DHT22;16349;53.672;10.014;2023-05-07T06:34:58;9.80;99.90
29363;DHT22;16349;53.672;10.014;2023-05-07T06:37:26;9.80;99.90
29363;DHT22;16349;53.672;10.014;2023-05-07T06:39:57;9.80;99.90
29363;DHT22;16349;53.672;10.014;2023-05-07T06:42:24;9.90;99.90
29363;DHT22;16349;53.672;10.014;2023-05-07T06:44:58;9.90;99.90
29363;DHT22;16349;53.672;10.014;2023-05-07T06:47:28;9.90;99.90
29363;DHT22;16349;53.672;10.014;2023-05-07T06:49:55;10.00;99.90
29363;DHT22;16349;53.672;10.014;2023-05-07T06:52:26;10.00;99.90
29363;DHT22;16349;53.672;10.014;2023-05-07T06:54:54;10.10;99.90
29363;DHT22;16349;53.672;10.014;2023-05-07T06:57:22;10.10;99.90
29363;DHT22;16349;53.672;10.014;2023-05-07T06:59:49;10.20;99.90
29363;DHT22;16349;53.672;10.014;2023-05-07T07:02:17;10.20;99.90
29363;DHT22;16349;53.672;10.014;2023-05-07T07:04:44;10.20;99.90
29363;DHT22;16349;53.672;10.014;2023-05-07T07:07:11;10.20;99.90
29363;DHT22;16349;53.672;10.014;2023-05-07T07:09:40;10.30;99.90
29363;DHT22;16349;53.672;10.014;2023-05-07T07:12:08;10.30;99.90
29363;DHT22;16349;53.672;10.014;2023-05-07T07:14:37;10.30;99.90
29363;DHT22;16349;53.672;10.014;2023-05-07T07:17:04;10.40;99.90
29363;DHT22;16349;53.672;10.014;2023-05-07T07:19:32;10.40;99.90
29363;DHT22;16349;53.672;10.014;2023-05-07T07:22:01;10.50;99.90
29363;DHT22;16349;53.672;10.014;2023-05-07T07:24:29;10.50;99.90
29363;DHT22;16349;53.672;10.014;2023-05-07T07:26:59;10.50;99.90
29363;DHT22;16349;53.672;10.014;2023-05-07T07:29:26;10.50;99.90
29363;DHT22;16349;53.672;10.014;2023-05-07T07:31:54;10.50;99.90
29363;DHT22;16349;53.672;10.014;2023-05-07T07:34:20;10.50;99.90
29363;DHT22;16349;53.672;10.014;2023-05-07T07:36:50;10.50;99.90
29363;DHT22;16349;53.672;10.014;2023-05-07T07:39:18;10.50;99.90
29363;DHT22;16349;53.672;10.014;2023-05-07T07:41:48;10.60;99.90
29363;DHT22;16349;53.672;10.014;2023-05-07T07:44:17;10.60;99.90
29363;DHT22;16349;53.672;10.014;2023-05-07T07:46:49;10.60;99.90
29363;DHT22;16349;53.672;10.014;2023-05-07T07:49:16;10.70;99.90
29363;DHT22;16349;53.672;10.014;2023-05-07T07:51:44;10.70;99.90
29363;DHT22;16349;53.672;10.014;2023-05-07T07:54:13;10.70;99.90
29363;DHT22;16349;53.672;10.014;2023-05-07T07:56:41;10.70;99.90
29363;DHT22;16349;53.672;10.014;2023-05-07T07:59:09;10.80;99.90
29363;DHT22;16349;53.672;10.014;2023-05-07T08:01:39;10.80;99.90
29363;DHT22;16349;53.672;10.014;2023-05-07T08:04:06;10.80;99.90
29363;DHT22;16349;53.672;10.014;2023-05-07T08:06:37;10.80;99.90
29363;DHT22;16349;53.672;10.014;2023-05-07T08:09:05;10.80;99.90
29363;DHT22;16349;53.672;10.014;2023-05-07T08:11:34;10.90;99.90
29363;DHT22;16349;53.672;10.014;2023-05-07T08:14:02;10.90;99.90
29363;DHT22;16349;53.672;10.014;2023-05-07T08:16:29;10.90;99.90
29363;DHT22;16349;53.672;10.014;2023-05-07T08:18:58;11.00;99.90
29363;DHT22;16349;53.672;10.014;2023-05-07T08:21:26;11.10;99.90
29363;DHT22;16349;53.672;10.014;2023-05-07T08:23:52;11.10;99.90
29363;DHT22;16349;53.672;10.014;2023-05-07T08:26:20;11.10;99.90
29363;DHT22;16349;53.672;10.014;2023-05-07T08:28:48;11.10;99.90
29363;DHT22;16349;53.672;10.014;2023-05-07T08:31:15;11.20;99.90
29363;DHT22;16349;53.672;10.014;2023-05-07T08:33:44;11.30;99.90
29363;DHT22;16349;53.672;10.014;2023-05-07T08:36:11;11.40;99.90
29363;DHT22;16349;53.672;10.014;2023-05-07T08:38:38;11.40;99.90
29363;DHT22;16349;53.672;10.014;2023-05-07T08:41:06;11.40;99.90
29363;DHT22;16349;53.672;10.014;2023-05-07T08:43:37;11.40;99.90
29363;DHT22;16349;53.672;10.014;2023-05-07T08:46:31;11.40;99.90
29363;DHT22;16349;53.672;10.014;2023-05-07T08:48:59;11.40;99.90
29363;DHT22;16349;53.672;10.014;2023-05-07T08:51:26;11.40;99.90
29363;DHT22;16349;53.672;10.014;2023-05-07T08:53:53;11.40;99.90
29363;DHT22;16349;53.672;10.014;2023-05-07T08:56:27;11.40;99.90
29363;DHT22;16349;53.672;10.014;2023-05-07T08:58:55;11.40;99.90
29363;DHT22;16349;53.672;10.014;2023-05-07T09:01:25;11.50;99.90
29363;DHT22;16349;53.672;10.014;2023-05-07T09:03:55;11.40;99.90
29363;DHT22;16349;53.672;10.014;2023-05-07T09:06:23;11.30;99.90
29363;DHT22;16349;53.672;10.014;2023-05-07T09:08:52;11.30;99.90
29363;DHT22;16349;53.672;10.014;2023-05-07T09:11:21;11.30;99.90
29363;DHT22;16349;53.672;10.014;2023-05-07T09:13:53;11.30;99.90
29363;DHT22;16349;53.672;10.014;2023-05-07T09:16:21;11.30;99.90
29363;DHT22;16349;53.672;10.014;2023-05-07T09:18:52;11.40;99.90
29363;DHT22;16349;53.672;10.014;2023-05-07T09:21:21;11.50;99.90
29363;DHT22;16349;53.672;10.014;2023-05-07T09:23:51;11.60;99.90
29363;DHT22;16349;53.672;10.014;2023-05-07T09:26:21;11.60;99.90
29363;DHT22;16349;53.672;10.014;2023-05-07T09:28:50;11.70;99.90
29363;DHT22;16349;53.672;10.014;2023-05-07T09:31:18;11.70;99.90
29363;DHT22;16349;53.672;10.014;2023-05-07T09:33:45;11.70;99.90
29363;DHT22;16349;53.672;10.014;2023-05-07T09:36:13;11.70;99.90
29363;DHT22;16349;53.672;10.014;2023-05-07T09:38:42;11.80;99.90
29363;DHT22;16349;53.672;10.014;2023-05-07T09:41:11;11.90;99.90
29363;DHT22;16349;53.672;10.014;2023-05-07T09:43:55;11.90;99.90
29363;DHT22;16349;53.672;10.014;2023-05-07T09:46:30;11.90;99.90
29363;DHT22;16349;53.672;10.014;2023-05-07T09:49:02;11.90;99.90
29363;DHT22;16349;53.672;10.014;2023-05-07T09:51:37;12.00;99.90
29363;DHT22;16349;53.672;10.014;2023-05-07T09:54:09;12.00;99.90
29363;DHT22;16349;53.672;10.014;2023-05-07T09:56:39;12.00;99.90
29363;DHT22;16349;53.672;10.014;2023-05-07T09:59:08;12.00;99.90
29363;DHT22;16349;53.672;10.014;2023-05-07T10:01:40;12.00;99.90
29363;DHT22;16349;53.672;10.014;2023-05-07T10:04:08;12.10;99.90
29363;DHT22;16349;53.672;10.014;2023-05-07T10:06:36;12.20;99.90
29363;DHT22;16349;53.672;10.014;2023-05-07T10:09:04;12.20;99.90
29363;DHT22;16349;53.672;10.014;2023-05-07T10:11:34;12.20;99.90
29363;DHT22;16349;53.672;10.014;2023-05-07T10:14:02;12.30;99.90
29363;DHT22;16349;53.672;10.014;2023-05-07T10:16:31;12.40;99.90
29363;DHT22;16349;53.672;10.014;2023-05-07T10:19:22;12.50;99.90
29363;DHT22;16349;53.672;10.014;2023-05-07T10:21:55;12.50;99.90
29363;DHT22;16349;53.672;10.014;2023-05-07T10:24:27;12.60;99.90
29363;DHT22;16349;53.672;10.014;2023-05-07T10:26:59;12.60;99.90
29363;DHT22;16349;53.672;10.014;2023-05-07T10:29:33;12.60;99.90
29363;DHT22;16349;53.672;10.014;2023-05-07T10:32:19;12.60;99.90
29363;DHT22;16349;53.672;10.014;2023-05-07T10:34:55;12.50;99.90
29363;DHT22;16349;53.672;10.014;2023-05-07T10:37:25;12.60;99.90
29363;DHT22;16349;53.672;10.014;2023-05-07T10:39:54;12.60;99.90
29363;DHT22;16349;53.672;10.014;2023-05-07T10:42:22;12.60;99.90
29363;DHT22;16349;53.672;10.014;2023-05-07T10:44:52;12.60;99.90
29363;DHT22;16349;53.672;10.014;2023-05-07T10:47:24;12.70;99.90
29363;DHT22;16349;53.672;10.014;2023-05-07T10:50:20;12.80;99.90
29363;DHT22;16349;53.672;10.014;2023-05-07T10:53:22;12.90;99.90
29363;DHT22;16349;53.672;10.014;2023-05-07T10:56:26;12.90;99.90
29363;DHT22;16349;53.672;10.014;2023-05-07T10:59:35;12.90;99.90
29363;DHT22;16349;53.672;10.014;2023-05-07T11:02:19;13.00;99.90
29363;DHT22;16349;53.672;10.014;2023-05-07T11:05:19;13.10;99.90
29363;DHT22;16349;53.672;10.014;2023-05-07T11:07:54;13.50;99.90
29363;DHT22;16349;53.672;10.014;2023-05-07T11:10:47;13.50;99.90
29363;DHT22;16349;53.672;10.014;2023-05-07T11:13:41;13.80;99.90
29363;DHT22;16349;53.672;10.014;2023-05-07T11:16:18;13.90;99.90
29363;DHT22;16349;53.672;10.014;2023-05-07T11:18:47;13.90;99.90
29363;DHT22;16349;53.672;10.014;2023-05-07T11:21:32;14.00;99.90
29363;DHT22;16349;53.672;10.014;2023-05-07T11:24:08;13.90;99.90
29363;DHT22;16349;53.672;10.014;2023-05-07T11:26:55;14.00;99.90
29363;DHT22;16349;53.672;10.014;2023-05-07T11:29:25;14.10;99.90
29363;DHT22;16349;53.672;10.014;2023-05-07T11:32:00;14.20;99.90
29363;DHT22;16349;53.672;10.014;2023-05-07T11:34:33;14.20;99.90
29363;DHT22;16349;53.672;10.014;2023-05-07T11:37:01;14.30;99.90
29363;DHT22;16349;53.672;10.014;2023-05-07T11:39:39;14.30;99.90
29363;DHT22;16349;53.672;10.014;2023-05-07T11:42:06;14.30;99.90
29363;DHT22;16349;53.672;10.014;2023-05-07T11:44:43;14.30;99.90
29363;DHT22;16349;53.672;10.014;2023-05-07T11:47:17;14.40;99.90
29363;DHT22;16349;53.672;10.014;2023-05-07T11:49:44;14.40;99.90
29363;DHT22;16349;53.672;10.014;2023-05-07T11:52:13;14.60;99.90
29363;DHT22;16349;53.672;10.014;2023-05-07T11:55:00;14.60;99.90
29363;DHT22;16349;53.672;10.014;2023-05-07T11:57:29;14.80;99.90
29363;DHT22;16349;53.672;10.014;2023-05-07T11:59:56;14.80;99.90
29363;DHT22;16349;53.672;10.014;2023-05-07T12:02:25;14.90;99.90
29363;DHT22;16349;53.672;10.014;2023-05-07T12:04:56;14.90;99.90
29363;DHT22;16349;53.672;10.014;2023-05-07T12:07:24;14.90;99.90
29363;DHT22;16349;53.672;10.014;2023-05-07T12:09:50;14.90;99.90
29363;DHT22;16349;53.672;10.014;2023-05-07T12:12:18;14.80;99.90
29363;DHT22;16349;53.672;10.014;2023-05-07T12:14:45;14.90;99.90
29363;DHT22;16349;53.672;10.014;2023-05-07T12:17:14;14.90;99.90
29363;DHT22;16349;53.672;10.014;2023-05-07T12:19:43;14.90;99.90
29363;DHT22;16349;53.672;10.014;2023-05-07T12:22:11;15.10;99.90
29363;DHT22;16349;53.672;10.014;2023-05-07T12:24:44;15.20;99.90
29363;DHT22;16349;53.672;10.014;2023-05-07T12:27:11;15.40;99.90
29363;DHT22;16349;53.672;10.014;2023-05-07T12:29:38;15.50;99.90
29363;DHT22;16349;53.672;10.014;2023-05-07T12:32:06;15.70;99.90
29363;DHT22;16349;53.672;10.014;2023-05-07T12:34:39;15.80;99.90
29363;DHT22;16349;53.672;10.014;2023-05-07T12:37:07;15.90;99.90
29363;DHT22;16349;53.672;10.014;2023-05-07T12:40:14;16.00;99.90
29363;DHT22;16349;53.672;10.014;2023-05-07T12:42:42;16.10;99.90
29363;DHT22;16349;53.672;10.014;2023-05-07T12:45:11;16.20;99.90
29363;DHT22;16349;53.672;10.014;2023-05-07T12:47:38;16.10;99.90
29363;DHT22;16349;53.672;10.014;2023-05-07T12:50:06;16.20;99.90
29363;DHT22;16349;53.672;10.014;2023-05-07T12:52:35;16.30;99.90
29363;DHT22;16349;53.672;10.014;2023-05-07T12:55:06;16.40;99.90
29363;DHT22;16349;53.672;10.014;2023-05-07T12:57:38;16.60;99.90
29363;DHT22;16349;53.672;10.014;2023-05-07T13:00:06;16.80;99.90
29363;DHT22;16349;53.672;10.014;2023-05-07T13:02:37;17.10;99.90
29363;DHT22;16349;53.672;10.014;2023-05-07T13:05:05;17.40;99.90
29363;DHT22;16349;53.672;10.014;2023-05-07T13:07:32;17.70;99.90
29363;DHT22;16349;53.672;10.014;2023-05-07T13:12:28;18.20;99.90
29363;DHT22;16349;53.672;10.014;2023-05-07T13:14:55;18.20;99.90
29363;DHT22;16349;53.672;10.014;2023-05-07T13:17:25;18.50;99.90
29363;DHT22;16349;53.672;10.014;2023-05-07T13:19:52;18.50;99.90
29363;DHT22;16349;53.672;10.014;2023-05-07T13:22:19;18.20;99.90
29363;DHT22;16349;53.672;10.014;2023-05-07T13:24:46;18.40;99.90
29363;DHT22;16349;53.672;10.014;2023-05-07T13:27:15;18.60;99.90
29363;DHT22;16349;53.672;10.014;2023-05-07T13:29:42;18.70;99.90
29363;DHT22;16349;53.672;10.014;2023-05-07T13:32:09;18.70;99.90
29363;DHT22;16349;53.672;10.014;2023-05-07T13:34:36;18.80;99.90
29363;DHT22;16349;53.672;10.014;2023-05-07T13:37:03;18.80;99.90
29363;DHT22;16349;53.672;10.014;2023-05-07T13:39:31;18.80;99.90
29363;DHT22;16349;53.672;10.014;2023-05-07T13:41:57;18.80;99.90
29363;DHT22;16349;53.672;10.014;2023-05-07T13:44:27;18.70;99.90
29363;DHT22;16349;53.672;10.014;2023-05-07T13:46:54;18.70;99.90
29363;DHT22;16349;53.672;10.014;2023-05-07T13:49:21;18.70;99.60
29363;DHT22;16349;53.672;10.014;2023-05-07T13:51:49;19.10;99.20
29363;DHT22;16349;53.672;10.014;2023-05-07T13:54:16;19.40;98.40
29363;DHT22;16349;53.672;10.014;2023-05-07T13:56:43;19.30;98.30
29363;DHT22;16349;53.672;10.014;2023-05-07T13:59:09;19.60;97.40
29363;DHT22;16349;53.672;10.014;2023-05-07T14:01:39;19.90;98.00
29363;DHT22;16349;53.672;10.014;2023-05-07T14:09:02;20.60;95.20
29363;DHT22;16349;53.672;10.014;2023-05-07T14:11:29;20.80;95.20
29363;DHT22;16349;53.672;10.014;2023-05-07T14:13:57;20.90;94.00
29363;DHT22;16349;53.672;10.014;2023-05-07T14:16:24;20.80;93.70
29363;DHT22;16349;53.672;10.014;2023-05-07T14:18:53;20.80;93.60
29363;DHT22;16349;53.672;10.014;2023-05-07T14:21:19;20.90;93.20
29363;DHT22;16349;53.672;10.014;2023-05-07T14:23:47;20.90;92.80
29363;DHT22;16349;53.672;10.014;2023-05-07T14:26:14;21.00;93.20
29363;DHT22;16349;53.672;10.014;2023-05-07T14:28:41;21.40;93.10
29363;DHT22;16349;53.672;10.014;2023-05-07T14:31:11;21.40;99.90
29363;DHT22;16349;53.672;10.014;2023-05-07T14:33:39;25.00;92.50
29363;DHT22;16349;53.672;10.014;2023-05-07T14:36:07;22.00;91.40
29363;DHT22;16349;53.672;10.014;2023-05-07T14:41:04;22.40;95.90
29363;DHT22;16349;53.672;10.014;2023-05-07T14:43:30;21.70;93.80
29363;DHT22;16349;53.672;10.014;2023-05-07T14:45:58;21.10;93.90
29363;DHT22;16349;53.672;10.014;2023-05-07T14:48:24;20.70;94.20
29363;DHT22;16349;53.672;10.014;2023-05-07T14:50:51;20.70;94.10
29363;DHT22;16349;53.672;10.014;2023-05-07T14:53:19;20.70;93.20
29363;DHT22;16349;53.672;10.014;2023-05-07T14:55:47;20.80;92.10
29363;DHT22;16349;53.672;10.014;2023-05-07T14:58:15;21.40;92.40
29363;DHT22;16349;53.672;10.014;2023-05-07T15:00:41;22.00;91.00
29363;DHT22;16349;53.672;10.014;2023-05-07T15:03:10;22.20;87.00
29363;DHT22;16349;53.672;10.014;2023-05-07T15:05:39;22.30;88.00
29363;DHT22;16349;53.672;10.014;2023-05-07T15:08:07;22.40;84.70
29363;DHT22;16349;53.672;10.014;2023-05-07T15:10:36;22.50;85.00
29363;DHT22;16349;53.672;10.014;2023-05-07T15:13:07;23.00;91.20
29363;DHT22;16349;53.672;10.014;2023-05-07T15:15:33;23.40;81.90
29363;DHT22;16349;53.672;10.014;2023-05-07T15:18:01;23.30;97.10
29363;DHT22;16349;53.672;10.014;2023-05-07T15:20:29;22.60;97.10
29363;DHT22;16349;53.672;10.014;2023-05-07T15:22:56;22.00;97.00
29363;DHT22;16349;53.672;10.014;2023-05-07T15:25:24;21.20;96.20
29363;DHT22;16349;53.672;10.014;2023-05-07T15:27:52;20.60;84.80
29363;DHT22;16349;53.672;10.014;2023-05-07T15:30:19;20.30;93.70
29363;DHT22;16349;53.672;10.014;2023-05-07T15:32:46;19.30;95.00
29363;DHT22;16349;53.672;10.014;2023-05-07T15:35:13;19.90;88.80
29363;DHT22;16349;53.672;10.014;2023-05-07T15:37:40;20.20;97.50
29363;DHT22;16349;53.672;10.014;2023-05-07T15:40:08;19.40;89.90
29363;DHT22;16349;53.672;10.014;2023-05-07T15:42:36;19.10;94.10
29363;DHT22;16349;53.672;10.014;2023-05-07T15:45:06;18.90;98.60
29363;DHT22;16349;53.672;10.014;2023-05-07T15:47:33;18.80;99.90